sensor_id;sensor_type;location;lat;lon;timestamp;pressure;altitude;pressure_sealevel;temperature;humidity
80644;BME280;70010;60.224;24.712;2023-05-10T00:01:37;102184.78;;;2.57;50.75
80644;BME280;70010;60.224;24.712;2023-05-10T00:04:02;102182.42;;;2.93;50.06
80644;BME280;70010;60.224;24.712;2023-05-10T00:06:28;102180.19;;;4.04;47.21
80644;BME280;70010;60.224;24.712;2023-05-10T00:08:53;102181.94;;;3.86;47.09
80644;BME280;70010;60.224;24.712;2023-05-10T00:11:19;102180.70;;;3.44;48.02
80644;BME280;70010;60.224;24.712;2023-05-10T00:13:44;102183.29;;;3.31;48.37
80644;BME280;70010;60.224;24.712;2023-05-10T00:16:10;102183.84;;;3.24;48.43
80644;BME280;70010;60.224;24.712;2023-05-10T00:18:35;102183.83;;;2.84;49.05
80644;BME280;70010;60.224;24.712;2023-05-10T00:21:01;102184.54;;;2.90;48.98
80644;BME280;70010;60.224;24.712;2023-05-10T00:23:26;102186.16;;;2.98;49.61
80644;BME280;70010;60.224;24.712;2023-05-10T00:25:51;102184.85;;;2.92;49.38
80644;BME280;70010;60.224;24.712;2023-05-10T00:28:16;102186.15;;;2.77;50.10
80644;BME280;70010;60.224;24.712;2023-05-10T00:30:41;102189.08;;;2.76;50.10
80644;BME280;70010;60.224;24.712;2023-05-10T00:33:07;102191.85;;;2.74;49.62
80644;BME280;70010;60.224;24.712;2023-05-10T00:35:32;102192.99;;;2.68;50.49
80644;BME280;70010;60.224;24.712;2023-05-10T00:37:57;102193.21;;;2.34;50.74
80644;BME280;70010;60.224;24.712;2023-05-10T00:40:23;102191.20;;;1.87;51.58
80644;BME280;70010;60.224;24.712;2023-05-10T00:42:48;102193.28;;;2.40;50.84
80644;BME280;70010;60.224;24.712;2023-05-10T00:45:13;102194.49;;;2.10;51.34
80644;BME280;70010;60.224;24.712;2023-05-10T00:47:39;102194.37;;;2.58;50.15
80644;BME280;70010;60.224;24.712;2023-05-10T00:50:05;102193.15;;;2.24;51.00
80644;BME280;70010;60.224;24.712;2023-05-10T00:52:29;102192.94;;;2.52;50.62
80644;BME280;70010;60.224;24.712;2023-05-10T00:54:55;102195.03;;;2.37;50.76
80644;BME280;70010;60.224;24.712;2023-05-10T00:57:20;102191.47;;;2.56;50.69
80644;BME280;70010;60.224;24.712;2023-05-10T00:59:45;102188.68;;;2.29;51.23
80644;BME280;70010;60.224;24.712;2023-05-10T01:02:11;102185.28;;;1.70;51.94
80644;BME280;70010;60.224;24.712;2023-05-10T01:04:37;102185.39;;;2.79;50.63
80644;BME280;70010;60.224;24.712;2023-05-10T01:07:02;102185.66;;;2.14;51.54
80644;BME280;70010;60.224;24.712;2023-05-10T01:09:27;102186.31;;;2.41;50.44
80644;BME280;70010;60.224;24.712;2023-05-10T01:11:53;102188.45;;;2.31;50.61
80644;BME280;70010;60.224;24.712;2023-05-10T01:14:19;102191.77;;;2.64;49.90
80644;BME280;70010;60.224;24.712;2023-05-10T01:16:44;102193.52;;;2.54;50.10
80644;BME280;70010;60.224;24.712;2023-05-10T01:19:15;102191.42;;;2.08;50.94
80644;BME280;70010;60.224;24.712;2023-05-10T01:21:40;102188.50;;;1.92;51.25
80644;BME280;70010;60.224;24.712;2023-05-10T01:24:12;102192.08;;;2.00;51.59
80644;BME280;70010;60.224;24.712;2023-05-10T01:26:40;102195.01;;;1.78;52.28
80644;BME280;70010;60.224;24.712;2023-05-10T01:31:22;102196.70;;;1.99;52.09
80644;BME280;70010;60.224;24.712;2023-05-10T01:33:47;102196.87;;;2.01;52.00
80644;BME280;70010;60.224;24.712;2023-05-10T01:36:12;102194.71;;;2.09;51.85
80644;BME280;70010;60.224;24.712;2023-05-10T01:38:40;102196.73;;;2.28;51.20
80644;BME280;70010;60.224;24.712;2023-05-10T01:41:06;102194.75;;;2.73;50.32
80644;BME280;70010;60.224;24.712;2023-05-10T01:43:28;102194.95;;;2.13;51.27
80644;BME280;70010;60.224;24.712;2023-05-10T01:45:57;102194.69;;;1.91;51.69
80644;BME280;70010;60.224;24.712;2023-05-10T01:48:15;102198.41;;;2.06;51.31
80644;BME280;70010;60.224;24.712;2023-05-10T01:50:43;102198.35;;;1.87;52.55
80644;BME280;70010;60.224;24.712;2023-05-10T01:53:08;102198.36;;;1.82;52.71
80644;BME280;70010;60.224;24.712;2023-05-10T01:55:34;102196.89;;;1.77;52.80
80644;BME280;70010;60.224;24.712;2023-05-10T01:58:02;102196.42;;;1.59;53.26
80644;BME280;70010;60.224;24.712;2023-05-10T02:00:22;102198.32;;;1.39;53.60
80644;BME280;70010;60.224;24.712;2023-05-10T02:02:48;102197.16;;;1.41;53.63
80644;BME280;70010;60.224;24.712;2023-05-10T02:05:13;102193.20;;;1.51;54.37
80644;BME280;70010;60.224;24.712;2023-05-10T02:07:38;102192.74;;;1.08;54.25
80644;BME280;70010;60.224;24.712;2023-05-10T02:10:05;102195.46;;;1.33;53.60
80644;BME280;70010;60.224;24.712;2023-05-10T02:12:29;102194.63;;;1.54;53.26
80644;BME280;70010;60.224;24.712;2023-05-10T02:14:53;102195.70;;;1.62;52.91
80644;BME280;70010;60.224;24.712;2023-05-10T02:17:19;102198.81;;;1.67;52.80
80644;BME280;70010;60.224;24.712;2023-05-10T02:19:44;102195.39;;;1.75;52.66
80644;BME280;70010;60.224;24.712;2023-05-10T02:22:09;102196.28;;;1.44;52.72
80644;BME280;70010;60.224;24.712;2023-05-10T02:24:35;102199.39;;;1.43;53.16
80644;BME280;70010;60.224;24.712;2023-05-10T02:27:02;102199.31;;;1.18;53.71
80644;BME280;70010;60.224;24.712;2023-05-10T02:29:27;102196.81;;;1.27;53.55
80644;BME280;70010;60.224;24.712;2023-05-10T02:31:53;102194.08;;;1.32;53.37
80644;BME280;70010;60.224;24.712;2023-05-10T02:34:17;102197.47;;;1.29;53.49
80644;BME280;70010;60.224;24.712;2023-05-10T02:36:42;102197.19;;;1.02;54.09
80644;BME280;70010;60.224;24.712;2023-05-10T02:39:07;102199.56;;;1.46;52.96
80644;BME280;70010;60.224;24.712;2023-05-10T02:41:32;102202.70;;;1.11;54.20
80644;BME280;70010;60.224;24.712;2023-05-10T02:43:59;102198.89;;;1.51;52.23
80644;BME280;70010;60.224;24.712;2023-05-10T02:46:23;102205.80;;;1.18;53.44
80644;BME280;70010;60.224;24.712;2023-05-10T02:48:48;102209.76;;;1.49;53.91
80644;BME280;70010;60.224;24.712;2023-05-10T02:51:16;102207.07;;;1.24;53.32
80644;BME280;70010;60.224;24.712;2023-05-10T02:53:40;102207.93;;;1.21;53.49
80644;BME280;70010;60.224;24.712;2023-05-10T02:56:08;102208.77;;;1.09;53.61
80644;BME280;70010;60.224;24.712;2023-05-10T02:58:29;102207.10;;;2.10;51.46
80644;BME280;70010;60.224;24.712;2023-05-10T03:00:54;102205.08;;;1.65;51.10
80644;BME280;70010;60.224;24.712;2023-05-10T03:03:19;102211.21;;;1.39;53.11
80644;BME280;70010;60.224;24.712;2023-05-10T03:05:45;102209.36;;;0.93;54.06
80644;BME280;70010;60.224;24.712;2023-05-10T03:08:11;102209.99;;;1.19;53.67
80644;BME280;70010;60.224;24.712;2023-05-10T03:10:41;102208.49;;;1.29;53.44
80644;BME280;70010;60.224;24.712;2023-05-10T03:13:09;102207.67;;;1.56;52.86
80644;BME280;70010;60.224;24.712;2023-05-10T03:15:33;102203.20;;;1.37;52.75
80644;BME280;70010;60.224;24.712;2023-05-10T03:17:56;102205.08;;;1.80;51.60
80644;BME280;70010;60.224;24.712;2023-05-10T03:20:22;102207.60;;;1.91;51.34
80644;BME280;70010;60.224;24.712;2023-05-10T03:22:47;102209.14;;;2.34;50.19
80644;BME280;70010;60.224;24.712;2023-05-10T03:25:10;102211.60;;;2.20;50.09
80644;BME280;70010;60.224;24.712;2023-05-10T03:27:36;102211.64;;;2.22;50.31
80644;BME280;70010;60.224;24.712;2023-05-10T03:29:59;102216.17;;;2.60;50.50
80644;BME280;70010;60.224;24.712;2023-05-10T03:32:24;102216.71;;;1.90;50.86
80644;BME280;70010;60.224;24.712;2023-05-10T03:34:50;102215.01;;;2.48;50.05
80644;BME280;70010;60.224;24.712;2023-05-10T03:37:15;102215.61;;;2.55;50.05
80644;BME280;70010;60.224;24.712;2023-05-10T03:39:40;102218.64;;;2.49;49.62
80644;BME280;70010;60.224;24.712;2023-05-10T03:42:05;102215.96;;;2.73;49.31
80644;BME280;70010;60.224;24.712;2023-05-10T03:44:30;102221.66;;;2.50;50.52
80644;BME280;70010;60.224;24.712;2023-05-10T03:46:56;102220.18;;;2.19;51.64
80644;BME280;70010;60.224;24.712;2023-05-10T03:49:21;102219.79;;;2.00;51.68
80644;BME280;70010;60.224;24.712;2023-05-10T03:51:47;102216.67;;;2.81;49.91
80644;BME280;70010;60.224;24.712;2023-05-10T03:54:12;102217.08;;;2.97;50.06
80644;BME280;70010;60.224;24.712;2023-05-10T03:56:37;102214.22;;;2.97;49.95
80644;BME280;70010;60.224;24.712;2023-05-10T03:59:02;102216.96;;;3.16;49.91
80644;BME280;70010;60.224;24.712;2023-05-10T04:01:28;102218.93;;;2.82;50.60
80644;BME280;70010;60.224;24.712;2023-05-10T04:03:54;102219.35;;;4.66;46.50
80644;BME280;70010;60.224;24.712;2023-05-10T04:06:19;102217.57;;;4.14;46.30
80644;BME280;70010;60.224;24.712;2023-05-10T04:08:44;102216.47;;;5.19;44.01
80644;BME280;70010;60.224;24.712;2023-05-10T04:11:11;102215.36;;;5.31;44.08
80644;BME280;70010;60.224;24.712;2023-05-10T04:13:35;102214.98;;;6.22;42.57
80644;BME280;70010;60.224;24.712;2023-05-10T04:16:00;102218.28;;;5.18;43.56
80644;BME280;70010;60.224;24.712;2023-05-10T04:18:25;102215.03;;;6.75;41.61
80644;BME280;70010;60.224;24.712;2023-05-10T04:20:51;102213.96;;;6.63;41.43
80644;BME280;70010;60.224;24.712;2023-05-10T04:23:17;102211.91;;;8.12;38.61
80644;BME280;70010;60.224;24.712;2023-05-10T04:25:42;102214.69;;;8.92;36.95
80644;BME280;70010;60.224;24.712;2023-05-10T04:28:07;102213.20;;;9.25;36.70
80644;BME280;70010;60.224;24.712;2023-05-10T04:30:32;102206.82;;;10.19;35.14
80644;BME280;70010;60.224;24.712;2023-05-10T04:32:58;102212.70;;;8.85;36.16
80644;BME280;70010;60.224;24.712;2023-05-10T04:35:23;102209.45;;;9.78;34.90
80644;BME280;70010;60.224;24.712;2023-05-10T04:37:49;102207.82;;;10.55;33.29
80644;BME280;70010;60.224;24.712;2023-05-10T04:40:14;102210.07;;;10.21;33.63
80644;BME280;70010;60.224;24.712;2023-05-10T04:42:40;102208.87;;;10.28;33.54
80644;BME280;70010;60.224;24.712;2023-05-10T04:45:06;102211.89;;;8.17;36.30
80644;BME280;70010;60.224;24.712;2023-05-10T04:47:30;102214.18;;;8.56;36.28
80644;BME280;70010;60.224;24.712;2023-05-10T04:49:55;102214.48;;;9.22;35.60
80644;BME280;70010;60.224;24.712;2023-05-10T04:52:21;102213.35;;;7.83;38.37
80644;BME280;70010;60.224;24.712;2023-05-10T04:54:46;102215.81;;;9.39;35.71
80644;BME280;70010;60.224;24.712;2023-05-10T04:57:11;102217.64;;;7.04;39.20
80644;BME280;70010;60.224;24.712;2023-05-10T04:59:37;102216.55;;;7.72;37.57
80644;BME280;70010;60.224;24.712;2023-05-10T05:02:02;102212.22;;;10.55;33.37
80644;BME280;70010;60.224;24.712;2023-05-10T05:04:27;102211.18;;;10.13;33.49
80644;BME280;70010;60.224;24.712;2023-05-10T05:06:53;102221.45;;;8.18;35.18
80644;BME280;70010;60.224;24.712;2023-05-10T05:09:18;102220.97;;;9.25;34.02
80644;BME280;70010;60.224;24.712;2023-05-10T05:11:44;102220.09;;;10.05;32.99
80644;BME280;70010;60.224;24.712;2023-05-10T05:14:09;102217.94;;;10.28;31.77
80644;BME280;70010;60.224;24.712;2023-05-10T05:16:35;102216.11;;;10.44;31.34
80644;BME280;70010;60.224;24.712;2023-05-10T05:19:00;102215.75;;;10.61;31.08
80644;BME280;70010;60.224;24.712;2023-05-10T05:21:25;102210.46;;;11.06;30.57
80644;BME280;70010;60.224;24.712;2023-05-10T05:23:50;102211.74;;;10.05;31.67
80644;BME280;70010;60.224;24.712;2023-05-10T05:26:16;102211.78;;;10.06;32.11
80644;BME280;70010;60.224;24.712;2023-05-10T05:28:41;102215.66;;;8.94;33.73
80644;BME280;70010;60.224;24.712;2023-05-10T05:31:07;102210.07;;;10.54;31.05
80644;BME280;70010;60.224;24.712;2023-05-10T05:33:33;102211.76;;;9.41;33.07
80644;BME280;70010;60.224;24.712;2023-05-10T05:36:00;102205.57;;;11.55;29.88
80644;BME280;70010;60.224;24.712;2023-05-10T05:38:23;102197.36;;;12.04;29.10
80644;BME280;70010;60.224;24.712;2023-05-10T05:40:48;102198.52;;;11.30;30.17
80644;BME280;70010;60.224;24.712;2023-05-10T05:43:14;102202.15;;;11.30;30.64
80644;BME280;70010;60.224;24.712;2023-05-10T05:45:39;102198.36;;;11.19;30.47
80644;BME280;70010;60.224;24.712;2023-05-10T05:48:05;102196.12;;;9.50;32.89
80644;BME280;70010;60.224;24.712;2023-05-10T05:50:30;102193.66;;;11.49;30.44
80644;BME280;70010;60.224;24.712;2023-05-10T05:52:55;102187.75;;;12.88;28.83
80644;BME280;70010;60.224;24.712;2023-05-10T05:55:20;102188.05;;;12.37;29.36
80644;BME280;70010;60.224;24.712;2023-05-10T05:57:46;102193.85;;;8.64;36.34
80644;BME280;70010;60.224;24.712;2023-05-10T06:00:12;102197.83;;;8.98;35.89
80644;BME280;70010;60.224;24.712;2023-05-10T06:02:36;102197.01;;;8.99;35.99
80644;BME280;70010;60.224;24.712;2023-05-10T06:05:02;102193.40;;;8.37;37.54
80644;BME280;70010;60.224;24.712;2023-05-10T06:07:27;102192.50;;;9.89;34.84
80644;BME280;70010;60.224;24.712;2023-05-10T06:09:52;102201.61;;;9.01;36.63
80644;BME280;70010;60.224;24.712;2023-05-10T06:12:18;102198.17;;;9.22;35.64
80644;BME280;70010;60.224;24.712;2023-05-10T06:14:43;102197.77;;;9.41;35.73
80644;BME280;70010;60.224;24.712;2023-05-10T06:17:09;102189.58;;;11.48;32.15
80644;BME280;70010;60.224;24.712;2023-05-10T06:19:34;102191.29;;;10.22;33.62
80644;BME280;70010;60.224;24.712;2023-05-10T06:21:59;102181.27;;;12.16;30.35
80644;BME280;70010;60.224;24.712;2023-05-10T06:24:25;102186.64;;;9.80;34.85
80644;BME280;70010;60.224;24.712;2023-05-10T06:26:50;102177.60;;;12.25;31.04
80644;BME280;70010;60.224;24.712;2023-05-10T06:29:15;102179.96;;;11.29;32.05
80644;BME280;70010;60.224;24.712;2023-05-10T06:31:41;102184.14;;;10.57;33.49
80644;BME280;70010;60.224;24.712;2023-05-10T06:34:06;102177.62;;;11.14;32.32
80644;BME280;70010;60.224;24.712;2023-05-10T06:36:32;102185.21;;;10.50;33.15
80644;BME280;70010;60.224;24.712;2023-05-10T06:38:57;102181.66;;;11.14;32.40
80644;BME280;70010;60.224;24.712;2023-05-10T06:41:23;102185.64;;;11.87;31.17
80644;BME280;70010;60.224;24.712;2023-05-10T06:43:49;102178.15;;;12.11;30.66
80644;BME280;70010;60.224;24.712;2023-05-10T06:46:14;102187.69;;;13.32;29.05
80644;BME280;70010;60.224;24.712;2023-05-10T06:48:39;102179.19;;;11.19;31.94
80644;BME280;70010;60.224;24.712;2023-05-10T06:51:05;102182.50;;;13.73;28.49
80644;BME280;70010;60.224;24.712;2023-05-10T06:53:31;102167.81;;;12.37;30.03
80644;BME280;70010;60.224;24.712;2023-05-10T06:55:56;102168.57;;;12.79;29.52
80644;BME280;70010;60.224;24.712;2023-05-10T06:58:22;102169.81;;;12.24;30.67
80644;BME280;70010;60.224;24.712;2023-05-10T07:00:47;102169.40;;;11.27;31.95
80644;BME280;70010;60.224;24.712;2023-05-10T07:03:12;102172.30;;;11.26;32.09
80644;BME280;70010;60.224;24.712;2023-05-10T07:05:37;102168.57;;;11.15;31.29
80644;BME280;70010;60.224;24.712;2023-05-10T07:08:03;102166.42;;;11.62;30.80
80644;BME280;70010;60.224;24.712;2023-05-10T07:10:28;102170.89;;;10.86;32.29
80644;BME280;70010;60.224;24.712;2023-05-10T07:12:54;102167.91;;;12.63;29.35
80644;BME280;70010;60.224;24.712;2023-05-10T07:15:19;102171.59;;;12.42;29.07
80644;BME280;70010;60.224;24.712;2023-05-10T07:17:44;102171.48;;;13.35;28.18
80644;BME280;70010;60.224;24.712;2023-05-10T07:20:10;102170.40;;;12.35;29.80
80644;BME280;70010;60.224;24.712;2023-05-10T07:22:35;102171.67;;;13.22;28.28
80644;BME280;70010;60.224;24.712;2023-05-10T07:25:01;102172.64;;;13.61;27.35
80644;BME280;70010;60.224;24.712;2023-05-10T07:27:26;102173.39;;;13.07;27.92
80644;BME280;70010;60.224;24.712;2023-05-10T07:29:51;102166.88;;;13.95;25.98
80644;BME280;70010;60.224;24.712;2023-05-10T07:32:17;102172.56;;;13.22;26.87
80644;BME280;70010;60.224;24.712;2023-05-10T07:34:42;102165.14;;;14.71;25.34
80644;BME280;70010;60.224;24.712;2023-05-10T07:37:07;102174.12;;;12.70;27.59
80644;BME280;70010;60.224;24.712;2023-05-10T07:39:32;102175.16;;;11.98;28.95
80644;BME280;70010;60.224;24.712;2023-05-10T07:41:57;102172.85;;;14.31;25.99
80644;BME280;70010;60.224;24.712;2023-05-10T07:44:24;102171.55;;;14.09;25.70
80644;BME280;70010;60.224;24.712;2023-05-10T07:46:49;102174.49;;;12.74;26.74
80644;BME280;70010;60.224;24.712;2023-05-10T07:49:15;102173.27;;;15.23;23.89
80644;BME280;70010;60.224;24.712;2023-05-10T07:51:40;102188.51;;;13.42;26.02
80644;BME280;70010;60.224;24.712;2023-05-10T07:54:05;102181.42;;;12.70;26.15
80644;BME280;70010;60.224;24.712;2023-05-10T07:56:32;102187.76;;;14.09;24.85
80644;BME280;70010;60.224;24.712;2023-05-10T07:58:56;102183.16;;;14.46;24.07
80644;BME280;70010;60.224;24.712;2023-05-10T08:01:22;102179.09;;;15.34;22.60
80644;BME280;70010;60.224;24.712;2023-05-10T08:03:47;102194.95;;;14.19;23.78
80644;BME280;70010;60.224;24.712;2023-05-10T08:06:13;102185.73;;;13.34;24.64
80644;BME280;70010;60.224;24.712;2023-05-10T08:08:38;102200.73;;;14.72;22.92
80644;BME280;70010;60.224;24.712;2023-05-10T08:11:04;102187.74;;;13.80;24.11
80644;BME280;70010;60.224;24.712;2023-05-10T08:13:29;102179.24;;;16.49;21.26
80644;BME280;70010;60.224;24.712;2023-05-10T08:15:54;102194.32;;;17.29;20.33
80644;BME280;70010;60.224;24.712;2023-05-10T08:18:19;102187.94;;;15.48;21.44
80644;BME280;70010;60.224;24.712;2023-05-10T08:20:45;102192.08;;;16.93;20.01
80644;BME280;70010;60.224;24.712;2023-05-10T08:23:11;102186.82;;;15.45;21.23
80644;BME280;70010;60.224;24.712;2023-05-10T08:25:35;102195.10;;;17.12;19.69
80644;BME280;70010;60.224;24.712;2023-05-10T08:28:01;102197.18;;;17.48;18.36
80644;BME280;70010;60.224;24.712;2023-05-10T08:30:26;102186.89;;;16.07;19.88
80644;BME280;70010;60.224;24.712;2023-05-10T08:32:51;102190.77;;;18.40;18.01
80644;BME280;70010;60.224;24.712;2023-05-10T08:35:16;102188.97;;;16.85;19.11
80644;BME280;70010;60.224;24.712;2023-05-10T08:37:42;102195.31;;;16.38;19.49
80644;BME280;70010;60.224;24.712;2023-05-10T08:40:09;102190.24;;;14.18;21.84
80644;BME280;70010;60.224;24.712;2023-05-10T08:42:34;102190.41;;;14.70;21.96
80644;BME280;70010;60.224;24.712;2023-05-10T08:44:59;102193.50;;;15.83;20.79
80644;BME280;70010;60.224;24.712;2023-05-10T08:47:25;102187.59;;;18.04;19.25
80644;BME280;70010;60.224;24.712;2023-05-10T08:49:49;102180.03;;;16.78;19.74
80644;BME280;70010;60.224;24.712;2023-05-10T08:52:15;102180.99;;;15.80;20.63
80644;BME280;70010;60.224;24.712;2023-05-10T08:54:39;102180.08;;;16.07;20.33
80644;BME280;70010;60.224;24.712;2023-05-10T08:57:05;102184.04;;;17.71;18.55
80644;BME280;70010;60.224;24.712;2023-05-10T08:59:30;102178.87;;;16.47;19.69
80644;BME280;70010;60.224;24.712;2023-05-10T09:01:57;102186.14;;;16.75;19.47
80644;BME280;70010;60.224;24.712;2023-05-10T09:04:21;102177.82;;;17.79;17.94
80644;BME280;70010;60.224;24.712;2023-05-10T09:06:46;102178.26;;;16.41;19.43
80644;BME280;70010;60.224;24.712;2023-05-10T09:09:12;102188.21;;;15.21;21.01
80644;BME280;70010;60.224;24.712;2023-05-10T09:11:37;102177.36;;;16.89;19.71
80644;BME280;70010;60.224;24.712;2023-05-10T09:14:02;102178.29;;;16.32;20.73
80644;BME280;70010;60.224;24.712;2023-05-10T09:16:27;102184.32;;;16.14;21.31
80644;BME280;70010;60.224;24.712;2023-05-10T09:18:52;102184.18;;;17.35;19.96
80644;BME280;70010;60.224;24.712;2023-05-10T09:21:19;102176.53;;;17.70;19.58
80644;BME280;70010;60.224;24.712;2023-05-10T09:23:43;102186.09;;;18.52;18.39
80644;BME280;70010;60.224;24.712;2023-05-10T09:26:08;102180.71;;;17.12;19.33
80644;BME280;70010;60.224;24.712;2023-05-10T09:28:34;102180.18;;;18.14;19.03
80644;BME280;70010;60.224;24.712;2023-05-10T09:30:59;102192.17;;;19.67;17.49
80644;BME280;70010;60.224;24.712;2023-05-10T09:33:25;102177.22;;;16.87;19.23
80644;BME280;70010;60.224;24.712;2023-05-10T09:35:51;102187.85;;;18.33;17.82
80644;BME280;70010;60.224;24.712;2023-05-10T09:38:16;102176.97;;;18.68;17.57
80644;BME280;70010;60.224;24.712;2023-05-10T09:40:50;102174.92;;;17.73;18.08
80644;BME280;70010;60.224;24.712;2023-05-10T09:43:07;102176.59;;;16.72;19.42
80644;BME280;70010;60.224;24.712;2023-05-10T09:45:33;102176.08;;;17.61;19.10
80644;BME280;70010;60.224;24.712;2023-05-10T09:47:58;102174.34;;;17.34;19.40
80644;BME280;70010;60.224;24.712;2023-05-10T09:50:22;102169.27;;;19.61;17.46
80644;BME280;70010;60.224;24.712;2023-05-10T09:52:50;102160.45;;;19.42;17.83
80644;BME280;70010;60.224;24.712;2023-05-10T09:55:13;102166.06;;;20.29;17.07
80644;BME280;70010;60.224;24.712;2023-05-10T09:57:39;102164.78;;;18.40;18.68
80644;BME280;70010;60.224;24.712;2023-05-10T10:00:05;102163.14;;;18.39;19.40
80644;BME280;70010;60.224;24.712;2023-05-10T10:02:31;102157.68;;;19.82;18.50
80644;BME280;70010;60.224;24.712;2023-05-10T10:04:55;102160.47;;;18.51;19.70
80644;BME280;70010;60.224;24.712;2023-05-10T10:07:23;102149.61;;;21.53;17.29
80644;BME280;70010;60.224;24.712;2023-05-10T10:09:46;102161.96;;;18.25;19.95
80644;BME280;70010;60.224;24.712;2023-05-10T10:12:12;102145.82;;;21.26;17.38
80644;BME280;70010;60.224;24.712;2023-05-10T10:14:37;102146.22;;;22.18;16.67
80644;BME280;70010;60.224;24.712;2023-05-10T10:17:02;102144.72;;;19.60;18.43
80644;BME280;70010;60.224;24.712;2023-05-10T10:19:28;102156.15;;;17.70;20.58
80644;BME280;70010;60.224;24.712;2023-05-10T10:21:53;102157.67;;;17.84;20.38
80644;BME280;70010;60.224;24.712;2023-05-10T10:24:19;102152.35;;;17.95;20.40
80644;BME280;70010;60.224;24.712;2023-05-10T10:26:45;102142.47;;;19.15;19.65
80644;BME280;70010;60.224;24.712;2023-05-10T10:29:18;102140.91;;;21.06;17.61
80644;BME280;70010;60.224;24.712;2023-05-10T10:31:39;102140.81;;;21.72;17.13
80644;BME280;70010;60.224;24.712;2023-05-10T10:34:03;102151.02;;;22.99;16.23
80644;BME280;70010;60.224;24.712;2023-05-10T10:36:25;102134.72;;;22.81;16.23
80644;BME280;70010;60.224;24.712;2023-05-10T10:38:56;102138.75;;;22.72;16.30
80644;BME280;70010;60.224;24.712;2023-05-10T10:43:41;102138.36;;;22.85;16.27
80644;BME280;70010;60.224;24.712;2023-05-10T10:46:12;102130.77;;;19.16;19.34
80644;BME280;70010;60.224;24.712;2023-05-10T10:48:32;102133.58;;;19.03;19.72
80644;BME280;70010;60.224;24.712;2023-05-10T10:50:57;102137.77;;;19.83;19.61
80644;BME280;70010;60.224;24.712;2023-05-10T10:53:23;102140.80;;;20.20;18.79
80644;BME280;70010;60.224;24.712;2023-05-10T10:55:48;102133.94;;;20.20;18.80
80644;BME280;70010;60.224;24.712;2023-05-10T11:00:39;102129.60;;;23.91;15.79
80644;BME280;70010;60.224;24.712;2023-05-10T11:03:05;102140.25;;;21.74;17.17
80644;BME280;70010;60.224;24.712;2023-05-10T11:05:36;102127.67;;;20.97;18.23
80644;BME280;70010;60.224;24.712;2023-05-10T11:07:56;102128.15;;;22.78;16.48
80644;BME280;70010;60.224;24.712;2023-05-10T11:10:20;102123.40;;;24.22;15.57
80644;BME280;70010;60.224;24.712;2023-05-10T11:12:51;102126.70;;;22.84;16.24
80644;BME280;70010;60.224;24.712;2023-05-10T11:15:11;102127.49;;;25.59;14.76
80644;BME280;70010;60.224;24.712;2023-05-10T11:17:36;102127.52;;;22.78;16.66
80644;BME280;70010;60.224;24.712;2023-05-10T11:20:07;102126.70;;;21.50;17.74
80644;BME280;70010;60.224;24.712;2023-05-10T11:22:27;102124.78;;;24.37;15.52
80644;BME280;70010;60.224;24.712;2023-05-10T11:24:57;102123.70;;;24.92;15.11
80644;BME280;70010;60.224;24.712;2023-05-10T11:27:18;102121.85;;;24.45;15.24
80644;BME280;70010;60.224;24.712;2023-05-10T11:29:43;102121.85;;;23.27;16.25
80644;BME280;70010;60.224;24.712;2023-05-10T11:32:09;102126.79;;;23.28;16.25
80644;BME280;70010;60.224;24.712;2023-05-10T11:34:34;102129.03;;;22.52;16.84
80644;BME280;70010;60.224;24.712;2023-05-10T11:36:59;102124.87;;;22.25;16.62
80644;BME280;70010;60.224;24.712;2023-05-10T11:39:26;102140.80;;;21.53;17.64
80644;BME280;70010;60.224;24.712;2023-05-10T11:41:50;102127.12;;;23.22;16.30
80644;BME280;70010;60.224;24.712;2023-05-10T11:44:15;102123.31;;;21.25;17.27
80644;BME280;70010;60.224;24.712;2023-05-10T11:46:41;102121.82;;;24.96;14.96
80644;BME280;70010;60.224;24.712;2023-05-10T11:49:07;102127.49;;;20.54;18.35
80644;BME280;70010;60.224;24.712;2023-05-10T11:51:33;102117.23;;;23.05;16.43
80644;BME280;70010;60.224;24.712;2023-05-10T11:53:57;102112.33;;;20.22;19.17
80644;BME280;70010;60.224;24.712;2023-05-10T11:56:22;102117.72;;;23.07;16.91
80644;BME280;70010;60.224;24.712;2023-05-10T11:58:53;102114.60;;;24.58;15.41
80644;BME280;70010;60.224;24.712;2023-05-10T12:01:13;102111.13;;;24.94;15.10
80644;BME280;70010;60.224;24.712;2023-05-10T12:03:38;102111.16;;;22.09;17.59
80644;BME280;70010;60.224;24.712;2023-05-10T12:06:04;102105.55;;;25.02;15.03
80644;BME280;70010;60.224;24.712;2023-05-10T12:08:29;102111.70;;;23.00;16.44
80644;BME280;70010;60.224;24.712;2023-05-10T12:13:20;102093.44;;;24.99;15.47
80644;BME280;70010;60.224;24.712;2023-05-10T12:15:45;102094.47;;;25.73;14.66
80644;BME280;70010;60.224;24.712;2023-05-10T12:18:11;102089.73;;;26.13;14.50
80644;BME280;70010;60.224;24.712;2023-05-10T12:20:36;102084.56;;;25.44;14.82
80644;BME280;70010;60.224;24.712;2023-05-10T12:23:02;102086.27;;;23.88;15.75
80644;BME280;70010;60.224;24.712;2023-05-10T12:25:30;102088.64;;;24.64;15.58
80644;BME280;70010;60.224;24.712;2023-05-10T12:27:53;102082.01;;;25.91;14.57
80644;BME280;70010;60.224;24.712;2023-05-10T12:30:22;102081.48;;;25.41;15.00
80644;BME280;70010;60.224;24.712;2023-05-10T12:32:44;102083.43;;;25.86;14.77
80644;BME280;70010;60.224;24.712;2023-05-10T12:35:08;102087.20;;;24.49;15.54
80644;BME280;70010;60.224;24.712;2023-05-10T12:37:34;102095.76;;;21.50;18.36
80644;BME280;70010;60.224;24.712;2023-05-10T12:39:59;102082.86;;;21.34;18.18
80644;BME280;70010;60.224;24.712;2023-05-10T12:42:24;102098.83;;;23.76;16.01
80644;BME280;70010;60.224;24.712;2023-05-10T12:44:49;102092.70;;;22.51;16.77